Time;durP1;ratioP1;P1;durP2;ratioP2;P2;SDS_P1;SDS_P2;PMS_P1;PMS_P2;Temp;Humidity;BMP_temperature;BMP_pressure;BME280_temperature;BME280_humidity;BME280_pressure;Samples;Min_cycle;Max_cycle;Signal;HPM_P1;HPM_P2
2022/06/08 00:01:42;;;;;;;13.50;10.07;;;;;;;19.52;100.00;98948.66;5113085;28;20462;-55
2022/06/08 00:04:12;;;;;;;11.10;10.15;;;;;;;19.47;100.00;98951.56;5112831;28;20348;-55
2022/06/08 00:06:39;;;;;;;20.05;10.52;;;;;;;19.43;100.00;98944.84;5112779;28;20293;-56
2022/06/08 00:09:06;;;;;;;10.82;9.85;;;;;;;19.34;100.00;98942.06;5112627;28;20195;-56
2022/06/08 00:11:33;;;;;;;11.65;10.48;;;;;;;19.28;100.00;98939.91;5112740;28;20197;-62
2022/06/08 00:14:00;;;;;;;10.40;9.55;;;;;;;19.21;100.00;98934.22;5112192;28;20210;-57
2022/06/08 00:16:27;;;;;;;12.65;10.88;;;;;;;19.25;100.00;98932.22;5112649;28;20190;-57
2022/06/08 00:18:55;;;;;;;11.43;10.25;;;;;;;19.24;100.00;98920.84;5112677;28;20696;-63
2022/06/08 00:21:22;;;;;;;12.43;10.57;;;;;;;19.22;100.00;98928.00;5112891;28;20191;-63
2022/06/08 00:23:49;;;;;;;11.13;10.10;;;;;;;19.23;100.00;98927.06;5112374;28;20313;-63
2022/06/08 00:26:16;;;;;;;10.93;9.93;;;;;;;19.20;100.00;98924.66;5112532;28;20289;-63
2022/06/08 00:28:43;;;;;;;12.30;9.70;;;;;;;19.13;100.00;98928.69;5112381;28;20201;-63
2022/06/08 00:31:10;;;;;;;12.18;9.45;;;;;;;18.95;100.00;98903.75;5112502;28;20586;-63
2022/06/08 00:33:37;;;;;;;10.35;9.40;;;;;;;19.09;100.00;98920.19;5112385;27;20197;-63
2022/06/08 00:36:06;;;;;;;10.13;9.15;;;;;;;19.03;100.00;98917.16;5112547;28;20689;-61
2022/06/08 00:38:35;;;;;;;10.85;9.82;;;;;;;19.13;100.00;98928.69;5112591;28;20212;-62
2022/06/08 00:41:19;;;;;;;10.85;10.00;;;;;;;19.05;100.00;98913.50;5112193;28;20285;-64
2022/06/08 00:43:46;;;;;;;10.02;9.10;;;;;;;19.13;100.00;98928.69;5112101;28;20789;-61
2022/06/08 00:46:14;;;;;;;10.07;9.27;;;;;;;19.04;100.00;98919.69;5112013;28;20342;-58
2022/06/08 00:48:48;;;;;;;10.05;9.05;;;;;;;18.94;100.00;98923.09;5112296;28;20205;-57
2022/06/08 00:51:16;;;;;;;9.55;8.73;;;;;;;18.92;100.00;98930.25;5112261;28;20628;-56
2022/06/08 00:53:49;;;;;;;9.85;9.25;;;;;;;18.85;100.00;98917.53;5112270;28;20278;-64
2022/06/08 00:56:19;;;;;;;11.35;10.25;;;;;;;18.72;100.00;98918.56;5111885;28;20234;-56
2022/06/08 00:58:46;;;;;;;11.18;10.20;;;;;;;18.64;100.00;98916.44;5111838;28;20294;-58
2022/06/08 01:01:13;;;;;;;10.30;9.40;;;;;;;18.59;100.00;98917.75;5112081;28;20693;-57
2022/06/08 01:03:40;;;;;;;10.90;10.00;;;;;;;18.64;100.00;98926.97;5111928;28;20222;-56
2022/06/08 01:06:16;;;;;;;10.95;9.95;;;;;;;18.66;100.00;98926.84;5111861;28;20198;-56
2022/06/08 01:08:46;;;;;;;9.77;9.13;;;;;;;18.61;100.00;98927.22;5111788;28;20289;-56
2022/06/08 01:11:24;;;;;;;10.10;9.17;;;;;;;18.60;100.00;98919.44;5111602;28;20225;-58
2022/06/08 01:13:52;;;;;;;9.95;9.07;;;;;;;18.47;100.00;98924.66;5111641;28;20196;-62
2022/06/08 01:16:19;;;;;;;9.13;8.40;;;;;;;18.40;100.00;98920.78;5111580;28;20604;-57
2022/06/08 01:18:46;;;;;;;11.50;8.70;;;;;;;18.48;100.00;98926.34;5111739;28;20722;-57
2022/06/08 01:21:46;;;;;;;9.83;9.10;;;;;;;18.44;100.00;98924.88;5111005;28;20201;-62
2022/06/08 01:24:14;;;;;;;9.60;8.60;;;;;;;18.35;100.00;98925.53;5111457;28;20313;-60
2022/06/08 01:26:45;;;;;;;8.83;8.10;;;;;;;18.23;100.00;98921.97;5111600;28;20224;-60
2022/06/08 01:29:22;;;;;;;9.07;8.27;;;;;;;18.18;100.00;98928.47;5111630;28;20584;-62
2022/06/08 01:32:02;;;;;;;9.00;8.00;;;;;;;18.19;100.00;98927.53;5111249;28;20193;-63
2022/06/08 01:34:40;;;;;;;8.33;7.80;;;;;;;18.14;100.00;98920.81;5111603;28;20658;-56
2022/06/08 01:37:23;;;;;;;8.93;8.03;;;;;;;18.23;100.00;98934.25;5111333;28;20589;-62
2022/06/08 01:40:13;;;;;;;7.53;7.07;;;;;;;18.26;100.00;98924.41;5111208;28;20289;-62
2022/06/08 01:43:02;;;;;;;10.40;7.27;;;;;;;18.33;100.00;98927.41;5111414;28;20644;-57
2022/06/08 01:45:56;;;;;;;7.40;6.70;;;;;;;18.21;100.00;98937.00;5111187;28;20226;-62
2022/06/08 01:48:36;;;;;;;7.32;6.78;;;;;;;18.23;100.00;98923.75;5111102;28;20687;-57
2022/06/08 01:51:17;;;;;;;6.80;6.30;;;;;;;18.12;100.00;98914.84;5111127;28;20213;-62
2022/06/08 01:53:54;;;;;;;7.13;6.30;;;;;;;18.27;100.00;98922.59;5111396;28;20589;-57
2022/06/08 01:56:30;;;;;;;8.20;6.32;;;;;;;18.37;100.00;98928.91;5110769;28;20328;-58
2022/06/08 01:59:09;;;;;;;6.35;6.05;;;;;;;18.29;100.00;98920.69;5110877;28;20194;-59
2022/06/08 02:01:43;;;;;;;6.20;5.70;;;;;;;18.23;100.00;98923.75;5111176;28;20682;-62
2022/06/08 02:04:19;;;;;;;7.97;7.03;;;;;;;18.19;100.00;98920.50;5111168;28;20312;-63
2022/06/08 02:06:53;;;;;;;8.40;7.43;;;;;;;18.13;100.00;98921.78;5110956;28;20198;-63
2022/06/08 02:09:29;;;;;;;9.27;6.27;;;;;;;18.00;100.00;98920.94;5110796;28;20648;-62
2022/06/08 02:12:00;;;;;;;6.60;6.20;;;;;;;17.97;100.00;98915.88;5111059;28;20200;-58
2022/06/08 02:14:35;;;;;;;7.27;6.77;;;;;;;18.03;100.00;98915.47;5111103;28;20709;-62
2022/06/08 02:17:08;;;;;;;12.97;11.67;;;;;;;18.07;100.00;98916.91;5110707;28;20201;-57
2022/06/08 02:19:42;;;;;;;17.67;13.77;;;;;;;18.07;100.00;98911.66;5110723;28;20202;-62
2022/06/08 02:22:14;;;;;;;18.73;16.90;;;;;;;18.13;100.00;98918.31;5110715;28;20205;-63
2022/06/08 02:24:47;;;;;;;23.23;19.90;;;;;;;18.08;100.00;98918.59;5110881;28;20706;-61
2022/06/08 02:27:17;;;;;;;33.73;26.97;;;;;;;18.05;100.00;98916.22;5110837;28;20198;-58
2022/06/08 02:29:50;;;;;;;31.90;25.03;;;;;;;17.92;100.00;98899.63;5110745;28;20289;-62
2022/06/08 02:35:14;;;;;;;33.60;22.47;;;;;;;17.91;100.00;98918.94;5114785;28;20186;-58
2022/06/08 02:37:45;;;;;;;29.47;21.67;;;;;;;17.89;100.00;98920.81;5114435;28;20186;-56
2022/06/08 02:40:18;;;;;;;23.17;20.07;;;;;;;17.82;100.00;98930.06;5114667;28;20191;-58
2022/06/08 02:42:48;;;;;;;22.33;18.17;;;;;;;17.85;100.00;98924.59;5114640;27;20672;-63
2022/06/08 02:45:18;;;;;;;18.13;14.77;;;;;;;17.87;100.00;98927.13;5114862;28;20329;-56
2022/06/08 02:47:50;;;;;;;17.90;14.23;;;;;;;17.87;100.00;98929.75;5114471;28;20289;-55
2022/06/08 02:50:20;;;;;;;13.90;12.70;;;;;;;17.93;100.00;98930.19;5115007;28;20633;-58
2022/06/08 02:52:50;;;;;;;13.43;11.80;;;;;;;17.93;100.00;98924.94;5113387;28;20191;-57
2022/06/08 02:55:20;;;;;;;13.63;12.27;;;;;;;17.95;100.00;98930.88;5112805;28;20236;-56
2022/06/08 02:57:53;;;;;;;12.70;11.47;;;;;;;17.94;100.00;98928.41;5113188;28;20187;-56
2022/06/08 03:00:26;;;;;;;13.67;12.23;;;;;;;17.92;100.00;98928.50;5113373;28;20191;-56
2022/06/08 03:02:57;;;;;;;15.17;13.60;;;;;;;17.91;100.00;98928.59;5110098;28;20656;-61
2022/06/08 03:05:29;;;;;;;17.90;15.13;;;;;;;17.95;100.00;98930.06;5112760;28;20237;-60
2022/06/08 03:07:59;;;;;;;19.80;17.67;;;;;;;17.95;100.00;98917.75;5109779;28;20199;-56
2022/06/08 03:10:33;;;;;;;17.33;15.60;;;;;;;18.03;100.00;98925.97;5110811;27;20220;-54
2022/06/08 03:13:06;;;;;;;18.20;14.87;;;;;;;18.06;100.00;98930.16;5112963;28;20214;-64
2022/06/08 03:15:34;;;;;;;16.80;15.20;;;;;;;18.06;100.00;98930.16;5113038;27;20254;-62
2022/06/08 03:18:02;;;;;;;15.63;14.07;;;;;;;18.00;100.00;98923.56;5112028;28;20237;-53
2022/06/08 03:20:29;;;;;;;18.77;15.37;;;;;;;18.07;100.00;98924.81;5112783;27;20287;-53
2022/06/08 03:22:57;;;;;;;18.97;16.53;;;;;;;18.10;100.00;98927.22;5113541;28;20218;-54
2022/06/08 03:25:25;;;;;;;20.13;16.20;;;;;;;18.21;100.00;98923.84;5112759;27;20309;-54
2022/06/08 03:27:54;;;;;;;18.53;16.63;;;;;;;18.32;100.00;98933.63;5112688;28;20228;-54
2022/06/08 03:30:22;;;;;;;18.35;16.10;;;;;;;18.47;100.00;98941.28;5113074;28;20344;-62
2022/06/08 03:32:49;;;;;;;18.35;16.35;;;;;;;18.67;100.00;98936.44;5113260;28;20222;-54
2022/06/08 03:35:17;;;;;;;18.60;16.63;;;;;;;18.79;100.00;98939.03;5112757;28;20220;-54
2022/06/08 03:37:44;;;;;;;16.13;14.50;;;;;;;18.85;100.00;98938.56;5113213;28;20611;-54
2022/06/08 03:40:12;;;;;;;19.80;16.17;;;;;;;18.81;100.00;98921.34;5111896;28;20226;-63
2022/06/08 03:42:39;;;;;;;16.63;15.00;;;;;;;19.10;100.00;98939.44;5113003;28;20689;-64
2022/06/08 03:45:09;;;;;;;20.83;14.75;;;;;;;19.34;100.00;98950.81;5112580;28;20244;-64
2022/06/08 03:47:40;;;;;;;14.25;12.88;;;;;;;19.47;100.00;98954.22;5113171;28;20199;-55
2022/06/08 03:50:10;;;;;;;13.95;12.25;;;;;;;19.79;100.00;98943.09;5110190;28;20229;-55
2022/06/08 03:52:41;;;;;;;11.75;10.65;;;;;;;21.14;98.33;98945.59;5112328;28;20195;-55
2022/06/08 03:55:10;;;;;;;12.88;9.30;;;;;;;22.78;85.36;98950.22;5109727;28;20357;-55
2022/06/08 03:57:38;;;;;;;14.38;10.20;;;;;;;23.78;78.44;98964.16;5110860;28;20194;-64
2022/06/08 04:00:06;;;;;;;11.27;9.52;;;;;;;24.87;71.53;98958.22;5111083;28;20195;-64
2022/06/08 04:02:35;;;;;;;11.23;9.20;;;;;;;25.80;67.33;98970.34;5114229;27;20208;-55
2022/06/08 04:05:02;;;;;;;10.98;8.70;;;;;;;27.21;61.47;98978.78;5108193;28;20244;-56
2022/06/08 04:07:28;;;;;;;13.70;9.30;;;;;;;27.83;57.80;98976.56;5110405;28;20194;-55
2022/06/08 04:09:56;;;;;;;10.85;8.95;;;;;;;28.44;54.87;98976.00;5110673;28;20199;-57
2022/06/08 04:12:23;;;;;;;9.60;8.70;;;;;;;29.22;52.61;98992.09;5111087;28;20671;-65
2022/06/08 04:14:51;;;;;;;13.02;7.90;;;;;;;30.23;48.81;98991.88;5110659;28;20577;-66
2022/06/08 04:17:19;;;;;;;9.10;8.07;;;;;;;31.46;45.18;98991.25;5110881;28;20686;-66
2022/06/08 04:19:48;;;;;;;10.63;7.00;;;;;;;32.33;43.10;98986.50;5110249;28;20193;-67
2022/06/08 04:22:16;;;;;;;8.57;7.07;;;;;;;32.78;41.14;98994.03;5110522;28;20654;-66
2022/06/08 04:24:43;;;;;;;7.05;6.45;;;;;;;33.37;39.68;98988.09;5110414;28;20221;-61
2022/06/08 04:27:10;;;;;;;8.82;5.57;;;;;;;34.08;37.41;98987.59;5110284;28;20281;-66
2022/06/08 04:29:38;;;;;;;12.05;5.80;;;;;;;35.10;35.33;98990.50;5110485;28;20670;-65
2022/06/08 04:32:06;;;;;;;7.97;5.55;;;;;;;35.61;34.41;98989.63;5110188;28;20263;-65
2022/06/08 04:34:33;;;;;;;5.13;4.72;;;;;;;36.06;33.01;98987.63;5110116;28;20683;-65
2022/06/08 04:37:01;;;;;;;5.45;4.88;;;;;;;35.09;33.75;98991.56;5107288;28;20533;-55
2022/06/08 04:39:28;;;;;;;8.10;5.28;;;;;;;35.73;33.36;98989.75;5110396;28;20589;-55
2022/06/08 04:41:56;;;;;;;12.30;5.32;;;;;;;36.27;32.13;98992.66;5110210;28;20201;-55
2022/06/08 04:44:23;;;;;;;5.93;4.47;;;;;;;36.11;32.13;98997.78;5110957;28;20219;-55
2022/06/08 04:46:50;;;;;;;7.30;4.60;;;;;;;35.95;32.08;99001.84;5110806;28;20198;-54
2022/06/08 04:49:17;;;;;;;7.65;5.13;;;;;;;35.92;32.25;98997.72;5109603;28;20565;-55
2022/06/08 04:51:43;;;;;;;5.05;4.40;;;;;;;36.98;30.80;99002.13;5101357;28;20203;-56
2022/06/08 04:54:12;;;;;;;5.32;4.82;;;;;;;36.79;30.69;99001.31;5090238;28;20191;-55
2022/06/08 04:56:39;;;;;;;8.05;5.03;;;;;;;36.77;30.10;99010.72;5089478;28;20213;-62
2022/06/08 04:59:06;;;;;;;6.80;5.90;;;;;;;36.25;31.34;99007.44;5090208;28;20203;-63
2022/06/08 05:01:33;;;;;;;7.72;4.82;;;;;;;36.86;30.81;98999.34;5107337;28;20194;-62
2022/06/08 05:04:00;;;;;;;5.20;4.63;;;;;;;37.77;29.54;99017.34;5110790;28;20678;-62
2022/06/08 05:06:27;;;;;;;9.75;5.30;;;;;;;36.35;31.07;99010.47;5110506;28;20204;-62
2022/06/08 05:08:54;;;;;;;11.48;5.47;;;;;;;35.54;32.41;98999.63;5109712;28;20197;-61
2022/06/08 05:11:22;;;;;;;7.85;5.65;;;;;;;36.00;32.41;98996.63;5110224;28;20190;-62
2022/06/08 05:13:49;;;;;;;11.35;7.18;;;;;;;36.76;31.49;98996.34;5108185;28;20219;-62
2022/06/08 05:16:16;;;;;;;11.75;10.57;;;;;;;37.25;30.24;99006.16;5109164;28;20200;-64
2022/06/08 05:18:43;;;;;;;6.55;5.93;;;;;;;37.66;29.84;99010.00;5110548;28;20201;-62
2022/06/08 05:21:10;;;;;;;8.32;5.40;;;;;;;38.10;28.44;99004.13;5102642;28;20584;-62
2022/06/08 05:23:40;;;;;;;8.20;5.68;;;;;;;37.58;29.16;98985.94;5108097;28;20198;-57
2022/06/08 05:26:08;;;;;;;13.40;8.73;;;;;;;36.08;31.67;98999.06;5109402;28;20219;-56
2022/06/08 05:28:37;;;;;;;7.60;5.35;;;;;;;36.33;31.51;99002.59;5109901;28;20202;-56
2022/06/08 05:31:04;;;;;;;5.88;5.32;;;;;;;36.93;30.84;99002.78;5109903;28;20658;-56
2022/06/08 05:33:32;;;;;;;5.57;5.10;;;;;;;36.53;31.35;99001.56;5107268;28;20198;-56
2022/06/08 05:35:59;;;;;;;5.65;5.25;;;;;;;36.48;31.75;98993.28;5108763;28;20200;-55
2022/06/08 05:38:26;;;;;;;7.63;7.13;;;;;;;36.35;32.00;98986.13;5109030;28;20199;-55
2022/06/08 05:40:54;;;;;;;5.47;5.00;;;;;;;36.55;31.11;99004.88;5108807;28;20591;-55
2022/06/08 05:43:22;;;;;;;7.88;7.10;;;;;;;35.87;31.92;98989.47;5108529;28;20245;-55
2022/06/08 05:45:51;;;;;;;5.32;4.93;;;;;;;35.58;32.53;99000.84;5108172;28;20732;-55
2022/06/08 05:48:18;;;;;;;5.70;4.38;;;;;;;36.16;31.99;99004.16;5109296;28;20613;-55
2022/06/08 05:50:46;;;;;;;5.82;5.00;;;;;;;35.99;31.76;98998.50;5108385;28;20205;-55
2022/06/08 05:53:15;;;;;;;6.13;4.10;;;;;;;35.57;32.41;98982.97;5109690;28;20192;-62
2022/06/08 05:55:42;;;;;;;5.25;4.32;;;;;;;35.99;31.58;98998.50;5108725;28;20606;-55
2022/06/08 05:58:09;;;;;;;5.93;4.43;;;;;;;35.95;31.79;98994.59;5109038;28;20203;-55
2022/06/08 06:00:39;;;;;;;5.55;4.82;;;;;;;35.87;31.76;98997.56;5109826;28;20194;-55
2022/06/08 06:03:08;;;;;;;4.75;4.40;;;;;;;36.62;30.58;98987.53;5109508;28;20578;-60
2022/06/08 06:05:37;;;;;;;5.20;4.53;;;;;;;36.42;30.91;98986.09;5106425;28;20214;-62
2022/06/08 06:08:04;;;;;;;4.95;4.30;;;;;;;36.54;30.26;98989.72;5109142;28;20186;-55
2022/06/08 06:10:34;;;;;;;8.32;4.47;;;;;;;36.72;30.51;98985.16;5109150;28;20190;-55
2022/06/08 06:13:01;;;;;;;4.50;4.20;;;;;;;36.43;30.65;98993.97;5109122;28;20224;-55
2022/06/08 06:15:28;;;;;;;4.55;4.15;;;;;;;35.58;31.46;98963.03;5109033;28;20201;-55
2022/06/08 06:17:55;;;;;;;8.55;4.70;;;;;;;34.95;32.24;98971.88;5106343;28;20187;-54
2022/06/08 06:20:24;;;;;;;9.73;5.00;;;;;;;34.88;32.89;98972.94;5109145;28;20205;-54
2022/06/08 06:22:51;;;;;;;6.35;4.30;;;;;;;34.75;33.13;98972.97;5109150;28;20198;-55
2022/06/08 06:25:19;;;;;;;6.22;5.50;;;;;;;34.30;34.10;98972.88;5108997;28;20275;-61
2022/06/08 06:27:46;;;;;;;5.35;5.00;;;;;;;33.49;35.98;98974.88;5109216;28;20190;-55
2022/06/08 06:30:15;;;;;;;6.93;5.40;;;;;;;33.42;36.08;98964.09;5108078;28;20470;-54
2022/06/08 06:32:43;;;;;;;9.13;5.25;;;;;;;33.26;36.68;98977.09;5108234;28;20190;-55
2022/06/08 06:35:16;;;;;;;7.15;5.18;;;;;;;33.41;36.36;98980.47;5108472;28;20194;-54
2022/06/08 06:37:44;;;;;;;13.63;5.60;;;;;;;33.44;35.98;98978.16;5108106;28;20209;-54
2022/06/08 06:40:13;;;;;;;13.25;5.88;;;;;;;33.53;36.16;98985.00;5107975;28;20197;-55
2022/06/08 06:42:40;;;;;;;13.70;6.70;;;;;;;33.13;37.45;98972.47;5106140;28;20207;-54
2022/06/08 06:45:08;;;;;;;8.38;6.35;;;;;;;32.89;38.40;98970.31;5106152;28;20215;-54
2022/06/08 06:47:35;;;;;;;9.27;5.60;;;;;;;32.63;38.36;98970.97;5107874;28;20198;-61
2022/06/08 06:50:02;;;;;;;13.70;6.43;;;;;;;32.42;38.64;98967.34;5108220;28;20810;-61
2022/06/08 06:52:29;;;;;;;9.68;6.03;;;;;;;32.50;37.38;98970.91;5107897;28;20299;-61
2022/06/08 06:55:00;;;;;;;11.02;6.55;;;;;;;31.94;37.91;98965.53;5105189;28;20222;-61
2022/06/08 06:57:27;;;;;;;12.00;5.80;;;;;;;31.69;38.32;98963.25;5108383;28;20218;-61
2022/06/08 06:59:54;;;;;;;11.88;8.13;;;;;;;31.87;38.59;98960.09;5106150;28;20201;-61
2022/06/08 07:02:22;;;;;;;10.63;7.93;;;;;;;32.00;38.80;98964.75;5109187;28;20289;-61
2022/06/08 07:04:50;;;;;;;11.95;8.82;;;;;;;31.79;39.77;98956.72;5108624;28;20293;-60
2022/06/08 07:07:18;;;;;;;15.50;9.27;;;;;;;31.48;40.44;98955.19;5107659;28;20194;-55
2022/06/08 07:09:44;;;;;;;7.85;6.80;;;;;;;31.94;39.28;98952.13;5108430;28;20264;-55
2022/06/08 07:12:14;;;;;;;7.00;5.72;;;;;;;32.20;39.13;98936.22;5108610;28;20186;-54
2022/06/08 07:14:41;;;;;;;10.38;6.22;;;;;;;32.03;39.05;98945.56;5109059;28;20195;-54
2022/06/08 07:17:08;;;;;;;6.78;6.18;;;;;;;31.85;39.76;98923.72;5109160;28;20222;-60
2022/06/08 07:19:35;;;;;;;7.00;6.40;;;;;;;31.51;40.70;98936.00;5110313;28;20182;-61
2022/06/08 07:22:02;;;;;;;9.02;6.50;;;;;;;31.76;41.09;98933.78;5113200;28;20197;-61
2022/06/08 07:24:33;;;;;;;6.00;5.50;;;;;;;31.78;40.62;98934.44;5112517;28;20286;-61
2022/06/08 07:27:00;;;;;;;5.45;4.95;;;;;;;31.55;39.44;98929.25;5113520;28;20247;-61
2022/06/08 07:29:29;;;;;;;5.78;5.00;;;;;;;31.60;40.85;98928.69;5113414;28;20254;-61
2022/06/08 07:31:56;;;;;;;6.68;5.60;;;;;;;31.88;39.29;98931.41;5113300;28;20483;-61
2022/06/08 07:34:23;;;;;;;8.20;5.30;;;;;;;32.14;38.62;98922.72;5113572;28;20197;-60
2022/06/08 07:36:50;;;;;;;6.15;4.55;;;;;;;32.36;38.57;98927.84;5113359;28;20194;-54
2022/06/08 07:39:19;;;;;;;4.53;4.13;;;;;;;32.24;37.02;98923.22;5113693;28;20191;-55
2022/06/08 07:41:47;;;;;;;3.83;3.63;;;;;;;31.82;36.89;98919.63;5113532;27;20565;-55
2022/06/08 07:44:15;;;;;;;6.28;4.28;;;;;;;31.78;37.71;98909.44;5113278;28;20190;-60
2022/06/08 07:46:44;;;;;;;7.88;4.20;;;;;;;32.01;37.56;98934.19;5113255;27;20309;-60
2022/06/08 07:51:56;;;;;;;9.13;4.20;;;;;;;32.96;36.97;98928.97;5113348;28;20193;-60
2022/06/08 07:54:25;;;;;;;9.68;4.35;;;;;;;32.60;36.22;98933.75;5113211;28;20652;-54
2022/06/08 07:56:53;;;;;;;4.90;4.45;;;;;;;32.61;36.86;98922.00;5113391;28;20195;-55
2022/06/08 07:59:22;;;;;;;5.88;4.40;;;;;;;33.09;36.57;98917.41;5113502;28;20251;-60
2022/06/08 08:01:50;;;;;;;4.45;3.97;;;;;;;33.06;35.62;98929.44;5112870;28;20657;-60
2022/06/08 08:04:17;;;;;;;7.70;3.92;;;;;;;33.27;36.33;98938.41;5112086;28;20204;-60
2022/06/08 08:06:44;;;;;;;5.93;4.60;;;;;;;33.14;36.68;98937.31;5112720;28;20253;-59
2022/06/08 08:09:17;;;;;;;5.80;4.10;;;;;;;33.69;36.08;98923.75;5112086;28;20199;-60
2022/06/08 08:11:45;;;;;;;6.75;4.68;;;;;;;34.14;34.73;98930.19;5113299;28;20673;-59
2022/06/08 08:14:12;;;;;;;5.50;4.90;;;;;;;34.40;34.16;98930.16;5112547;28;20560;-60
2022/06/08 08:16:39;;;;;;;4.70;4.20;;;;;;;33.38;34.68;98929.75;5112711;27;20201;-60
2022/06/08 08:19:08;;;;;;;5.15;4.80;;;;;;;33.70;34.94;98928.94;5112496;28;20201;-60
2022/06/08 08:21:35;;;;;;;6.22;4.85;;;;;;;34.20;34.05;98926.66;5112684;28;20194;-60
2022/06/08 08:24:03;;;;;;;7.43;4.85;;;;;;;34.33;34.00;98921.25;5112655;28;20582;-60
2022/06/08 08:26:30;;;;;;;6.13;4.63;;;;;;;34.88;32.74;98927.09;5112264;28;20226;-61
2022/06/08 08:28:58;;;;;;;7.10;4.43;;;;;;;35.27;31.94;98923.41;5112476;28;20245;-60
2022/06/08 08:31:26;;;;;;;5.63;4.63;;;;;;;35.22;32.60;98926.69;5112494;28;20202;-61
2022/06/08 08:33:53;;;;;;;3.67;3.38;;;;;;;35.44;29.50;98942.59;5112576;28;20613;-60
2022/06/08 08:36:21;;;;;;;7.40;5.60;;;;;;;34.90;29.74;98939.31;5112079;27;20198;-60
2022/06/08 08:38:49;;;;;;;5.82;5.40;;;;;;;34.52;31.28;98936.56;5112139;28;20194;-60
2022/06/08 08:44:07;;;;;;;5.22;4.60;;;;;;;34.10;32.96;98931.63;5112203;28;20224;-55
2022/06/08 08:46:43;;;;;;;4.35;3.60;;;;;;;33.01;33.45;98936.44;5112054;27;20214;-55
2022/06/08 08:49:19;;;;;;;4.20;3.90;;;;;;;32.43;34.16;98934.09;5112111;28;20198;-54
2022/06/08 08:51:53;;;;;;;3.67;3.47;;;;;;;32.18;34.66;98924.84;5111094;28;20205;-54
2022/06/08 08:54:26;;;;;;;3.72;3.53;;;;;;;32.34;35.62;98927.22;5111684;28;20213;-53
2022/06/08 08:56:57;;;;;;;4.68;4.38;;;;;;;32.18;36.20;98919.47;5111947;28;20212;-54
2022/06/08 08:59:27;;;;;;;4.22;3.67;;;;;;;31.94;36.41;98918.03;5111680;28;20281;-54
2022/06/08 09:01:55;;;;;;;3.67;2.88;;;;;;;31.67;34.59;98921.53;5111542;28;20194;-55
2022/06/08 09:04:28;;;;;;;5.10;3.00;;;;;;;31.53;35.29;98914.34;5111534;28;20600;-54
2022/06/08 09:06:57;;;;;;;3.28;3.08;;;;;;;31.94;34.51;98912.66;5111597;28;20236;-54
2022/06/08 09:09:34;;;;;;;3.13;3.03;;;;;;;31.68;35.04;98912.47;5111738;28;20198;-54
2022/06/08 09:12:01;;;;;;;4.30;2.85;;;;;;;31.33;35.62;98906.13;5111725;28;20200;-54
2022/06/08 09:14:46;;;;;;;3.10;2.83;;;;;;;31.21;36.30;98904.97;5111169;28;20210;-60
2022/06/08 09:17:16;;;;;;;4.18;3.88;;;;;;;31.38;35.95;98901.84;5111034;28;20302;-60
2022/06/08 09:19:45;;;;;;;5.20;2.70;;;;;;;31.47;35.81;98907.94;5111480;28;20670;-60
2022/06/08 09:22:27;;;;;;;4.30;3.28;;;;;;;31.61;35.50;98900.78;5111281;28;20757;-61
2022/06/08 09:24:57;;;;;;;5.40;3.03;;;;;;;31.56;35.83;98900.56;5111691;28;20220;-60
2022/06/08 09:27:27;;;;;;;3.22;2.72;;;;;;;31.32;34.91;98907.97;5111282;28;20286;-60
2022/06/08 09:30:02;;;;;;;2.90;2.70;;;;;;;31.43;34.12;98901.28;5111279;28;20198;-60
2022/06/08 09:32:33;;;;;;;3.08;2.88;;;;;;;31.59;34.49;98901.03;5111826;28;20225;-60
2022/06/08 09:35:03;;;;;;;2.88;2.72;;;;;;;31.26;34.68;98895.34;5111896;28;20286;-60
2022/06/08 09:37:31;;;;;;;3.28;3.05;;;;;;;31.42;34.96;98894.25;5111742;28;20285;-61
2022/06/08 09:40:01;;;;;;;3.20;3.00;;;;;;;31.60;34.72;98893.81;5111184;28;20281;-55
2022/06/08 09:42:50;;;;;;;3.72;2.80;;;;;;;31.55;34.96;98886.31;5111072;28;20573;-55
2022/06/08 09:45:38;;;;;;;4.28;3.47;;;;;;;31.86;35.53;98877.91;5110952;28;20289;-59
2022/06/08 09:51:48;;;;;;;3.38;3.10;;;;;;;31.51;36.13;98879.66;5111584;28;20858;-60
2022/06/08 09:54:24;;;;;;;3.35;2.80;;;;;;;31.22;35.26;98872.63;5110961;28;20286;-58
2022/06/08 09:57:09;;;;;;;2.88;2.67;;;;;;;31.27;35.49;98877.38;5110883;27;20584;-60
2022/06/08 09:59:58;;;;;;;3.00;2.58;;;;;;;30.92;36.09;98866.50;5103231;28;20205;-60
2022/06/08 10:02:35;;;;;;;3.28;2.97;;;;;;;30.89;35.96;98874.94;5110694;28;20738;-60
2022/06/08 10:05:17;;;;;;;3.40;3.20;;;;;;;30.90;36.03;98873.06;5109928;28;20205;-54
2022/06/08 10:07:52;;;;;;;3.58;3.00;;;;;;;30.77;37.30;98864.88;5110038;28;20194;-59
2022/06/08 10:10:32;;;;;;;5.35;3.05;;;;;;;30.75;37.73;98865.06;5109389;28;20196;-54
2022/06/08 10:13:01;;;;;;;2.70;2.60;;;;;;;30.08;38.11;98857.19;5090064;28;20252;-54
2022/06/08 10:15:34;;;;;;;3.40;3.10;;;;;;;30.25;37.89;98861.31;5090341;28;20237;-54
2022/06/08 10:18:14;;;;;;;3.47;3.10;;;;;;;30.33;38.24;98855.06;5090738;28;20659;-54
2022/06/08 10:20:44;;;;;;;3.85;3.50;;;;;;;30.34;39.21;98846.00;5090329;28;20202;-54
2022/06/08 10:23:28;;;;;;;3.60;3.30;;;;;;;30.07;40.07;98823.41;5090551;28;20199;-59
2022/06/08 10:26:00;;;;;;;3.30;3.10;;;;;;;29.97;39.68;98838.91;5092588;28;20322;-59
2022/06/08 10:28:36;;;;;;;3.40;3.20;;;;;;;30.24;39.54;98845.47;5109703;28;20247;-60
2022/06/08 10:31:10;;;;;;;3.08;2.83;;;;;;;30.38;38.95;98847.28;5109514;28;20201;-59
2022/06/08 10:33:41;;;;;;;3.90;3.10;;;;;;;30.17;38.60;98831.16;5113845;28;20278;-59
2022/06/08 10:36:10;;;;;;;3.10;2.90;;;;;;;30.14;39.52;98836.84;5109290;28;20574;-59
2022/06/08 10:38:42;;;;;;;3.63;3.28;;;;;;;30.12;40.47;98836.25;5112987;28;20195;-59
2022/06/08 10:44:34;;;;;;;5.47;3.13;;;;;;;29.34;42.54;98813.41;5116776;28;20196;-54
2022/06/08 10:47:25;;;;;;;4.10;3.75;;;;;;;29.17;42.94;98812.72;5123194;28;20212;-59
2022/06/08 10:49:55;;;;;;;4.18;3.83;;;;;;;29.22;42.46;98817.53;5115198;28;20563;-59
2022/06/08 10:52:40;;;;;;;3.88;3.55;;;;;;;29.37;43.24;98798.81;5113978;27;20287;-59
2022/06/08 10:55:31;;;;;;;4.18;3.78;;;;;;;29.27;44.46;98802.59;5114707;27;20226;-59
2022/06/08 10:58:18;;;;;;;3.65;3.22;;;;;;;28.92;43.63;98799.72;5126639;27;20204;-59
2022/06/08 11:01:06;;;;;;;5.30;3.38;;;;;;;29.05;42.92;98792.75;5120153;27;20198;-59
2022/06/08 11:03:56;;;;;;;3.53;3.22;;;;;;;29.16;42.92;98789.66;5123954;27;20709;-59
2022/06/08 11:07:03;;;;;;;4.15;2.85;;;;;;;29.23;43.07;98777.22;5118651;27;20305;-59
2022/06/08 11:09:52;;;;;;;4.32;2.97;;;;;;;29.12;43.16;98761.63;5111698;27;20233;-59
2022/06/08 11:12:36;;;;;;;3.05;2.72;;;;;;;29.01;40.56;98774.63;5122505;27;20233;-54
2022/06/08 11:15:12;;;;;;;5.20;3.67;;;;;;;29.02;42.34;98757.53;5123051;27;20582;-55
2022/06/08 11:17:45;;;;;;;2.70;2.50;;;;;;;29.40;39.59;98759.25;5121639;27;20194;-54
2022/06/08 11:20:16;;;;;;;2.60;2.50;;;;;;;29.44;39.41;98759.72;5119756;27;20640;-54
2022/06/08 11:22:46;;;;;;;5.40;3.13;;;;;;;29.29;41.55;98756.97;5121876;27;20197;-54
2022/06/08 11:25:22;;;;;;;4.03;3.60;;;;;;;29.09;43.45;98740.63;5119911;27;20662;-55
2022/06/08 11:28:27;;;;;;;3.78;3.10;;;;;;;29.21;43.95;98743.69;5121390;27;20218;-54
2022/06/08 11:30:59;;;;;;;5.60;3.58;;;;;;;29.37;43.33;98742.69;5118225;27;20194;-60
2022/06/08 11:33:52;;;;;;;3.50;3.30;;;;;;;29.38;43.19;98755.06;5124907;27;20194;-55
2022/06/08 11:36:41;;;;;;;3.97;3.13;;;;;;;29.28;42.53;98744.63;5121121;27;20659;-59
2022/06/08 11:39:23;;;;;;;4.07;3.30;;;;;;;29.16;43.50;98724.69;5121982;27;20733;-60
2022/06/08 11:42:00;;;;;;;3.55;3.17;;;;;;;29.28;43.77;98736.59;5128203;27;20280;-60
2022/06/08 11:44:33;;;;;;;3.20;3.10;;;;;;;29.24;43.92;98737.97;5125012;27;20499;-60
2022/06/08 11:47:14;;;;;;;4.28;4.07;;;;;;;29.27;44.00;98737.59;5123460;27;20682;-55
2022/06/08 11:49:43;;;;;;;3.08;2.92;;;;;;;29.45;43.63;98735.47;5121618;27;20201;-54
2022/06/08 11:52:29;;;;;;;3.47;3.35;;;;;;;29.26;44.66;98742.13;5121643;27;20197;-55
2022/06/08 11:55:19;;;;;;;3.85;3.50;;;;;;;29.05;44.18;98733.16;5121960;27;20607;-54
2022/06/08 11:57:53;;;;;;;3.58;3.25;;;;;;;29.02;44.19;98728.16;5120562;27;20190;-53
2022/06/08 12:00:25;;;;;;;4.32;4.05;;;;;;;28.81;44.79;98736.84;5120276;27;20185;-54
2022/06/08 12:02:59;;;;;;;3.70;3.50;;;;;;;28.72;45.66;98738.72;5118896;27;20662;-54